Time;durP1;ratioP1;P1;durP2;ratioP2;P2;SDS_P1;SDS_P2;PMS_P1;PMS_P2;Temp;Humidity;BMP_temperature;BMP_pressure;BME280_temperature;BME280_humidity;BME280_pressure;Samples;Min_cycle;Max_cycle;Signal;HPM_P1;HPM_P2
2021/11/14 00:00:06;;;;;;;31.42;18.63;;;;;;;6.83;70.26;99883.69;10383274;28;20502;-67
2021/11/14 00:05:08;;;;;;;35.83;19.38;;;;;;;6.92;69.93;99887.59;10382537;28;20061;-67
2021/11/14 00:10:11;;;;;;;44.17;22.17;;;;;;;6.94;69.62;99891.81;10382330;28;20141;-66
2021/11/14 00:15:14;;;;;;;38.70;21.65;;;;;;;7.02;69.50;99892.31;10381624;28;20062;-67
2021/11/14 00:20:19;;;;;;;22.58;15.93;;;;;;;7.09;69.38;99893.75;10382589;28;20061;-67
2021/11/14 00:25:22;;;;;;;38.58;20.60;;;;;;;7.08;69.34;99893.81;10382228;28;20045;-67
2021/11/14 00:30:25;;;;;;;38.58;21.58;;;;;;;7.02;69.38;99904.50;10382470;28;20052;-67
2021/11/14 00:35:27;;;;;;;39.85;20.85;;;;;;;7.08;69.29;99907.63;10382416;28;20056;-67
2021/11/14 00:40:31;;;;;;;41.83;22.55;;;;;;;7.21;69.13;99902.72;10381717;28;20041;-66
2021/11/14 00:45:35;;;;;;;55.00;25.58;;;;;;;7.25;68.94;99906.00;10383383;28;20164;-66
2021/11/14 00:50:42;;;;;;;30.13;18.52;;;;;;;7.27;68.89;99907.63;10382069;28;20569;-66
2021/11/14 00:55:46;;;;;;;29.13;18.92;;;;;;;7.29;68.72;99913.63;10385311;28;20140;-66
2021/11/14 01:00:48;;;;;;;34.88;19.10;;;;;;;7.29;68.68;99912.75;10387675;28;20571;-66
2021/11/14 01:05:51;;;;;;;34.90;19.27;;;;;;;7.24;68.89;99909.53;10388048;28;20054;-66
2021/11/14 01:10:53;;;;;;;31.98;19.08;;;;;;;7.22;68.84;99912.22;10389295;28;20050;-66
2021/11/14 01:15:56;;;;;;;29.58;18.20;;;;;;;7.10;68.92;99923.19;10388644;28;20431;-66
2021/11/14 01:21:00;;;;;;;37.53;21.38;;;;;;;6.82;69.65;99926.19;10387873;28;20588;-66
2021/11/14 01:26:02;;;;;;;38.17;22.30;;;;;;;6.86;69.72;99925.13;10389164;28;20136;-66
2021/11/14 01:31:04;;;;;;;41.35;23.02;;;;;;;6.93;69.59;99931.75;10386412;28;20056;-66
2021/11/14 01:36:07;;;;;;;37.20;20.73;;;;;;;7.01;69.57;99929.66;10386588;28;20056;-66
2021/11/14 01:41:11;;;;;;;42.53;22.65;;;;;;;7.09;69.53;99942.28;10387185;28;20140;-66
2021/11/14 01:46:14;;;;;;;49.05;24.13;;;;;;;6.98;69.73;99941.91;10386195;28;20186;-66
2021/11/14 01:51:17;;;;;;;39.13;21.60;;;;;;;7.02;69.62;99956.50;10387023;28;20071;-66
2021/11/14 01:56:19;;;;;;;54.42;25.00;;;;;;;6.96;69.69;99956.75;10387423;28;20049;-66
2021/11/14 02:01:30;;;;;;;35.15;19.80;;;;;;;6.81;70.27;99958.28;10384667;28;20049;-67
2021/11/14 02:06:33;;;;;;;36.72;19.52;;;;;;;6.71;70.52;99963.97;10387040;28;20093;-66
2021/11/14 02:11:36;;;;;;;42.20;20.90;;;;;;;6.65;70.62;99959.88;10385605;28;20054;-65
2021/11/14 02:16:38;;;;;;;31.05;17.67;;;;;;;6.73;70.73;99975.13;10386908;28;20049;-66
2021/11/14 02:21:40;;;;;;;36.95;19.42;;;;;;;6.89;70.52;99970.94;10385579;28;20053;-66
2021/11/14 02:26:42;;;;;;;28.65;16.25;;;;;;;6.93;70.41;99972.50;10386263;28;20063;-66
2021/11/14 02:31:45;;;;;;;60.00;24.50;;;;;;;7.05;70.20;99971.94;10384920;28;20060;-66
2021/11/14 02:36:48;;;;;;;36.40;18.55;;;;;;;7.05;70.06;99972.81;10385392;28;20061;-66
2021/11/14 02:41:50;;;;;;;40.08;20.15;;;;;;;7.11;69.93;99979.47;10384828;28;20059;-66
2021/11/14 02:46:52;;;;;;;29.98;17.35;;;;;;;7.16;69.87;99980.13;10383815;28;20097;-66
2021/11/14 02:51:54;;;;;;;36.53;18.08;;;;;;;7.05;70.10;99978.00;10384756;28;20447;-66
2021/11/14 02:56:56;;;;;;;41.08;19.23;;;;;;;6.91;70.48;99979.53;10383386;28;20091;-66
2021/11/14 03:01:58;;;;;;;35.53;17.95;;;;;;;6.88;70.69;99990.03;10387330;28;20601;-65
2021/11/14 03:07:00;;;;;;;37.80;19.17;;;;;;;6.83;70.96;99987.66;10392047;28;20053;-66
2021/11/14 03:12:02;;;;;;;47.50;20.17;;;;;;;6.95;70.70;99996.66;10391966;28;20140;-66
2021/11/14 03:17:05;;;;;;;44.17;19.70;;;;;;;6.83;70.90;99998.06;10391786;28;20050;-66
2021/11/14 03:22:08;;;;;;;55.70;21.92;;;;;;;6.82;71.01;99998.97;10391426;28;20063;-66
2021/11/14 03:27:10;;;;;;;50.55;21.23;;;;;;;6.82;71.26;100005.91;10391361;28;20140;-66
2021/11/14 03:32:13;;;;;;;44.00;19.83;;;;;;;6.87;71.16;100014.38;10391144;28;20663;-66
2021/11/14 03:37:18;;;;;;;42.63;19.45;;;;;;;6.81;71.55;100009.44;10391456;28;20049;-66
2021/11/14 03:42:20;;;;;;;41.95;20.33;;;;;;;6.91;71.40;100019.38;10390453;28;20845;-66
2021/11/14 03:47:22;;;;;;;47.90;21.65;;;;;;;6.92;71.29;100020.19;10391378;28;20423;-66
2021/11/14 03:52:24;;;;;;;45.80;21.40;;;;;;;7.02;71.17;100034.50;10389474;28;20056;-65
2021/11/14 03:57:26;;;;;;;57.53;22.30;;;;;;;7.10;70.88;100024.63;10391567;28;20164;-66
2021/11/14 04:02:29;;;;;;;50.95;21.60;;;;;;;7.07;71.01;100040.34;10388408;28;20053;-65
2021/11/14 04:07:31;;;;;;;48.15;21.85;;;;;;;6.95;71.17;100033.94;10385419;28;20061;-66
2021/11/14 04:12:34;;;;;;;48.20;21.42;;;;;;;7.09;71.05;100048.91;10383328;28;20064;-66
2021/11/14 04:17:36;;;;;;;52.05;23.08;;;;;;;7.20;70.67;100042.31;10383833;28;20050;-66
2021/11/14 04:22:39;;;;;;;39.47;19.50;;;;;;;7.30;70.53;100047.97;10383595;28;21179;-66
2021/11/14 04:27:41;;;;;;;40.08;19.10;;;;;;;7.29;70.38;100048.88;10383331;28;20056;-66
2021/11/14 04:32:43;;;;;;;27.30;14.75;;;;;;;7.22;70.50;100052.69;10390568;28;20144;-66
2021/11/14 04:37:48;;;;;;;61.05;23.92;;;;;;;7.23;70.58;100056.09;10391687;28;20136;-66
2021/11/14 04:42:51;;;;;;;22.40;14.18;;;;;;;7.13;70.56;100058.28;10390759;28;20140;-65
2021/11/14 04:47:53;;;;;;;36.28;18.67;;;;;;;7.14;70.90;100060.81;10391192;28;20056;-66
2021/11/14 04:52:55;;;;;;;37.47;19.00;;;;;;;7.16;70.73;100058.97;10390715;28;20045;-65
2021/11/14 04:57:56;;;;;;;32.33;17.30;;;;;;;7.02;71.00;100061.34;10391001;28;20060;-66
2021/11/14 05:02:58;;;;;;;32.58;17.42;;;;;;;6.99;71.20;100066.69;10390287;28;20064;-66
2021/11/14 05:08:00;;;;;;;35.38;18.98;;;;;;;6.96;71.28;100065.94;10388543;28;20490;-66
2021/11/14 05:13:03;;;;;;;41.70;19.98;;;;;;;7.08;71.08;100074.06;10389104;28;20494;-66
2021/11/14 05:18:04;;;;;;;37.70;19.83;;;;;;;7.05;71.09;100081.16;10390005;28;20178;-66
2021/11/14 05:23:08;;;;;;;36.70;19.15;;;;;;;7.16;70.60;100090.19;10389153;28;20288;-66
2021/11/14 05:28:10;;;;;;;32.65;17.08;;;;;;;7.24;70.57;100092.47;10389386;28;20045;-66
2021/11/14 05:33:12;;;;;;;35.10;18.60;;;;;;;7.28;70.37;100078.44;10388853;28;20056;-66
2021/11/14 05:38:15;;;;;;;40.75;20.42;;;;;;;7.21;70.70;100084.78;10389703;28;20054;-66
2021/11/14 05:43:17;;;;;;;40.30;20.15;;;;;;;7.30;70.56;100094.81;10386652;28;20053;-66
2021/11/14 05:48:18;;;;;;;37.53;20.73;;;;;;;7.41;70.27;100100.38;10389165;28;20128;-66
2021/11/14 05:53:20;;;;;;;37.50;19.70;;;;;;;7.45;69.95;100109.72;10386552;28;20045;-66
2021/11/14 05:58:30;;;;;;;29.27;16.42;;;;;;;7.45;70.09;100127.13;10388150;28;20055;-66
2021/11/14 06:03:41;;;;;;;30.63;18.30;;;;;;;7.45;70.10;100140.13;10387554;28;20049;-66
2021/11/14 06:08:42;;;;;;;22.42;15.32;;;;;;;7.49;69.98;100141.69;10388538;28;20053;-66
2021/11/14 06:13:45;;;;;;;21.38;15.10;;;;;;;7.55;69.81;100150.06;10387318;28;20045;-66
2021/11/14 06:18:47;;;;;;;24.52;16.10;;;;;;;7.55;69.75;100160.47;10387607;28;20055;-65
2021/11/14 06:23:50;;;;;;;26.08;15.15;;;;;;;7.40;69.98;100160.28;10386303;28;20076;-66
2021/11/14 06:28:52;;;;;;;28.65;17.25;;;;;;;7.30;70.36;100174.59;10386462;28;20063;-66
2021/11/14 06:33:54;;;;;;;22.38;15.35;;;;;;;7.42;70.14;100180.13;10386714;28;20372;-65
2021/11/14 06:38:55;;;;;;;30.10;17.45;;;;;;;7.47;69.91;100191.19;10386908;28;20405;-66
2021/11/14 06:43:57;;;;;;;30.35;18.20;;;;;;;7.56;69.66;100196.00;10385236;28;20139;-66
2021/11/14 06:48:59;;;;;;;23.67;16.20;;;;;;;7.50;69.84;100201.47;10386248;28;20046;-67
2021/11/14 06:54:00;;;;;;;27.83;17.50;;;;;;;7.62;69.52;100200.94;10385614;28;20075;-66
2021/11/14 06:59:02;;;;;;;21.60;15.07;;;;;;;7.56;69.62;100210.75;10384850;28;20057;-66
2021/11/14 07:04:04;;;;;;;23.85;15.32;;;;;;;7.52;69.68;100217.88;10385585;28;20059;-66
2021/11/14 07:09:08;;;;;;;21.95;15.63;;;;;;;7.56;69.60;100223.78;10384314;28;20168;-66
2021/11/14 07:14:09;;;;;;;33.97;18.92;;;;;;;7.45;69.97;100234.63;10385288;28;20129;-66
2021/11/14 07:19:11;;;;;;;25.98;18.30;;;;;;;7.28;70.37;100238.84;10384406;28;20054;-66
2021/11/14 07:24:13;;;;;;;37.28;20.52;;;;;;;7.23;70.62;100246.84;10382812;28;20097;-65
2021/11/14 07:29:16;;;;;;;22.77;16.85;;;;;;;7.25;70.68;100254.56;10384893;28;20053;-66
2021/11/14 07:34:17;;;;;;;28.08;19.10;;;;;;;7.19;70.77;100266.09;10380916;28;20052;-67
2021/11/14 07:39:19;;;;;;;22.88;15.63;;;;;;;7.18;70.82;100272.22;10383728;28;20061;-66
2021/11/14 07:44:21;;;;;;;20.38;15.55;;;;;;;7.20;70.99;100278.19;10384472;28;20409;-66
2021/11/14 07:49:23;;;;;;;23.70;16.40;;;;;;;7.25;70.89;100280.59;10383199;28;20057;-67
2021/11/14 07:54:24;;;;;;;23.63;16.48;;;;;;;7.30;70.73;100283.88;10383359;28;20164;-66
2021/11/14 07:59:26;;;;;;;25.00;18.15;;;;;;;7.41;70.62;100273.84;10373065;28;20410;-67
2021/11/14 08:04:29;;;;;;;23.95;16.90;;;;;;;7.50;70.36;100278.69;10380719;28;20057;-66
2021/11/14 08:09:30;;;;;;;20.42;15.63;;;;;;;7.56;70.19;100284.50;10388298;28;20046;-66
2021/11/14 08:14:32;;;;;;;36.35;22.38;;;;;;;7.59;70.23;100281.75;10389114;28;20136;-66
2021/11/14 08:19:34;;;;;;;23.13;18.10;;;;;;;7.56;70.19;100291.44;10385505;28;20049;-67
2021/11/14 08:24:36;;;;;;;26.88;19.98;;;;;;;7.58;70.38;100300.88;10386439;28;20670;-66
2021/11/14 08:29:38;;;;;;;25.15;17.83;;;;;;;7.64;70.04;100298.03;10389097;28;20580;-66
2021/11/14 08:34:40;;;;;;;31.58;21.58;;;;;;;7.67;70.09;100305.69;10389811;28;20405;-66
2021/11/14 08:39:42;;;;;;;31.70;20.67;;;;;;;7.71;70.12;100316.84;10390669;28;20867;-66
2021/11/14 08:44:44;;;;;;;26.88;18.75;;;;;;;7.70;70.25;100318.59;10386768;28;20056;-66
2021/11/14 08:49:47;;;;;;;21.08;16.10;;;;;;;7.75;69.89;100329.66;10388623;28;20052;-66
2021/11/14 08:54:49;;;;;;;25.98;18.95;;;;;;;7.83;69.77;100332.78;10388645;28;20194;-66
2021/11/14 08:59:51;;;;;;;21.05;15.68;;;;;;;7.95;69.69;100342.69;10391593;28;20480;-66
2021/11/14 09:04:52;;;;;;;19.38;14.90;;;;;;;8.10;69.19;100340.34;10384709;28;20057;-66
2021/11/14 09:09:54;;;;;;;19.15;15.75;;;;;;;8.25;69.11;100343.16;10388274;28;20045;-66
2021/11/14 09:14:56;;;;;;;22.88;17.35;;;;;;;8.50;68.56;100335.09;10386881;28;20429;-66
2021/11/14 09:20:01;;;;;;;23.15;17.52;;;;;;;8.72;68.19;100341.88;10385658;28;20046;-66
2021/11/14 09:25:04;;;;;;;20.50;15.75;;;;;;;8.98;67.79;100348.50;10385647;28;20516;-74
2021/11/14 09:30:07;;;;;;;19.27;15.27;;;;;;;9.05;66.84;100355.13;10386748;28;20132;-73
2021/11/14 09:35:09;;;;;;;22.17;17.23;;;;;;;8.92;67.68;100367.03;10388184;28;20057;-73
2021/11/14 09:40:11;;;;;;;17.48;13.75;;;;;;;8.80;67.55;100376.28;10388393;28;20944;-72
2021/11/14 09:45:13;;;;;;;19.63;15.30;;;;;;;8.61;67.86;100364.97;10385460;28;20060;-72
2021/11/14 09:50:15;;;;;;;18.60;14.77;;;;;;;8.59;67.92;100363.34;10386590;28;20088;-75
2021/11/14 09:55:18;;;;;;;22.35;17.50;;;;;;;8.70;68.01;100377.63;10378264;28;20055;-74
2021/11/14 10:00:20;;;;;;;16.38;14.18;;;;;;;8.69;67.54;100377.66;10384399;28;20057;-74
2021/11/14 10:05:22;;;;;;;18.52;15.30;;;;;;;8.51;67.87;100383.69;10386180;28;20053;-72
2021/11/14 10:10:27;;;;;;;18.60;15.20;;;;;;;8.58;67.83;100382.53;10385878;28;20053;-76
2021/11/14 10:15:46;;;;;;;17.60;13.40;;;;;;;8.67;67.60;100384.72;10385480;28;20200;-74
2021/11/14 10:20:51;;;;;;;17.90;14.35;;;;;;;8.67;67.65;100389.94;10383818;28;20530;-74
2021/11/14 10:25:55;;;;;;;18.42;16.02;;;;;;;8.57;67.62;100397.31;10385868;28;20477;-76
2021/11/14 10:30:57;;;;;;;17.52;14.23;;;;;;;8.61;67.36;100388.44;10381567;28;20200;-78
2021/11/14 10:36:00;;;;;;;18.60;14.40;;;;;;;8.88;67.20;100380.28;10386043;28;20057;-80
2021/11/14 10:41:09;;;;;;;17.15;15.32;;;;;;;9.09;66.87;100382.78;10385380;28;20065;-83
2021/11/14 10:46:17;;;;;;;21.65;15.55;;;;;;;9.24;66.58;100389.06;10384814;28;20052;-82
2021/11/14 10:51:20;;;;;;;18.58;13.88;;;;;;;9.13;66.37;100397.38;10385710;28;20132;-80
2021/11/14 10:56:21;;;;;;;19.83;15.57;;;;;;;9.02;66.83;100401.38;10384279;28;20071;-86
2021/11/14 11:01:23;;;;;;;18.42;15.20;;;;;;;8.88;66.68;100398.56;10384228;28;20934;-84
2021/11/14 11:06:29;;;;;;;16.45;13.82;;;;;;;8.87;66.79;100391.66;10384916;28;20733;-84
2021/11/14 11:11:35;;;;;;;20.80;16.05;;;;;;;8.95;67.11;100395.63;10385232;28;20049;-82
2021/11/14 11:16:37;;;;;;;18.25;15.50;;;;;;;8.99;66.91;100397.16;10384110;28;20496;-82
2021/11/14 11:21:46;;;;;;;13.77;12.20;;;;;;;9.16;65.99;100401.59;10384525;28;20063;-83
2021/11/14 11:27:07;;;;;;;14.75;12.95;;;;;;;9.07;66.07;100408.09;10382636;28;20033;-83
2021/11/14 11:32:11;;;;;;;15.40;13.57;;;;;;;9.20;66.33;100398.75;10381449;28;20304;-84
2021/11/14 11:37:14;;;;;;;16.73;13.77;;;;;;;9.35;65.85;100399.81;10383018;28;20546;-84
2021/11/14 11:42:16;;;;;;;16.15;13.52;;;;;;;9.51;65.64;100391.19;10385252;28;20045;-85
2021/11/14 11:47:35;;;;;;;16.65;13.00;;;;;;;9.44;65.03;100402.00;10385599;28;20049;-84
2021/11/14 11:52:43;;;;;;;16.30;14.05;;;;;;;9.29;65.40;100405.31;10379549;28;20053;-82
2021/11/14 11:57:44;;;;;;;17.05;14.45;;;;;;;9.50;65.82;100393.88;10382428;28;20064;-84
2021/11/14 12:02:46;;;;;;;15.95;13.77;;;;;;;9.77;65.29;100408.22;10383599;28;20068;-84
2021/11/14 12:07:51;;;;;;;14.20;12.23;;;;;;;9.84;65.15;100412.25;10382753;28;20119;-83
2021/11/14 12:13:03;;;;;;;13.95;12.45;;;;;;;9.78;65.27;100409.94;10380275;28;20057;-84
2021/11/14 12:18:14;;;;;;;13.75;11.77;;;;;;;9.78;65.07;100416.91;10382996;28;20057;-83
2021/11/14 12:23:37;;;;;;;14.48;11.05;;;;;;;9.86;64.67;100423.47;10378891;28;20285;-85
2021/11/14 12:28:43;;;;;;;13.98;10.93;;;;;;;9.80;64.95;100422.91;10380859;28;20049;-85
2021/11/14 12:33:48;;;;;;;12.50;11.10;;;;;;;9.70;64.93;100427.75;10382529;28;20053;-84
2021/11/14 12:39:04;;;;;;;11.48;10.27;;;;;;;9.70;64.33;100432.13;10382530;28;20512;-84
2021/11/14 12:44:10;;;;;;;11.67;9.73;;;;;;;9.41;65.09;100430.84;10382984;28;20053;-86
2021/11/14 12:49:13;;;;;;;12.57;10.10;;;;;;;9.42;65.04;100432.56;10380619;28;20609;-83
2021/11/14 12:54:15;;;;;;;11.27;9.60;;;;;;;9.46;64.92;100434.09;10389745;28;20505;-86
2021/11/14 12:59:22;;;;;;;14.40;9.00;;;;;;;9.25;65.11;100430.72;10389491;28;20051;-85
2021/11/14 13:04:35;;;;;;;13.10;9.85;;;;;;;9.27;65.48;100431.50;10387569;28;20144;-86
2021/11/14 13:09:47;;;;;;;10.10;9.05;;;;;;;9.27;65.00;100422.81;10389207;28;20073;-83
2021/11/14 13:14:56;;;;;;;10.32;9.18;;;;;;;9.35;65.08;100432.00;10388346;28;20050;-85
2021/11/14 13:20:00;;;;;;;11.77;10.07;;;;;;;9.46;64.98;100434.94;10388356;28;20046;-83
2021/11/14 13:25:04;;;;;;;9.55;8.55;;;;;;;9.52;64.74;100437.25;10389257;28;20052;-86
2021/11/14 13:30:06;;;;;;;11.25;8.35;;;;;;;9.49;64.87;100432.19;10387624;28;20486;-83
2021/11/14 13:35:08;;;;;;;10.07;8.15;;;;;;;9.41;64.68;100436.94;10387283;28;20595;-84
2021/11/14 13:40:13;;;;;;;10.63;9.52;;;;;;;9.38;64.82;100438.84;10387058;28;20057;-84
2021/11/14 13:45:18;;;;;;;10.98;9.48;;;;;;;9.32;65.02;100446.97;10389624;28;20071;-86
2021/11/14 13:50:24;;;;;;;12.18;9.70;;;;;;;9.29;64.99;100442.72;10388676;28;20045;-83
2021/11/14 13:55:25;;;;;;;10.95;9.45;;;;;;;9.37;65.18;100445.81;10388678;28;20045;-85
2021/11/14 14:00:29;;;;;;;11.80;9.23;;;;;;;9.38;65.14;100454.50;10387096;28;20053;-84
2021/11/14 14:05:30;;;;;;;9.38;7.93;;;;;;;9.43;65.12;100455.97;10385693;28;20072;-85
2021/11/14 14:10:32;;;;;;;9.85;7.60;;;;;;;9.34;65.08;100464.22;10388036;28;20766;-84
2021/11/14 14:15:38;;;;;;;8.82;7.80;;;;;;;9.38;64.94;100467.56;10387433;28;20552;-84
2021/11/14 14:20:40;;;;;;;8.98;7.97;;;;;;;9.45;64.96;100474.16;10385797;28;20144;-84
2021/11/14 14:25:42;;;;;;;9.30;8.30;;;;;;;9.45;64.97;100480.25;10384835;28;20235;-79
2021/11/14 14:30:45;;;;;;;10.15;8.10;;;;;;;9.50;64.79;100478.25;10383448;28;20316;-80
2021/11/14 14:35:46;;;;;;;8.90;7.55;;;;;;;9.49;64.65;100480.94;10384796;28;20147;-81
2021/11/14 14:40:53;;;;;;;9.68;7.60;;;;;;;9.48;64.66;100482.69;10385201;28;20051;-79
2021/11/14 14:46:04;;;;;;;10.57;8.52;;;;;;;9.56;64.68;100483.19;10386345;28;20395;-80
2021/11/14 14:51:18;;;;;;;11.30;8.57;;;;;;;9.50;64.62;100486.09;10386759;28;20049;-80
2021/11/14 14:56:29;;;;;;;10.25;8.30;;;;;;;9.48;64.58;100493.13;10385330;28;20154;-79
2021/11/14 15:01:40;;;;;;;11.45;9.27;;;;;;;9.52;64.90;100492.06;10384410;28;20053;-80
2021/11/14 15:06:46;;;;;;;10.68;8.25;;;;;;;9.61;64.75;100496.88;10384949;28;20383;-81
2021/11/14 15:11:53;;;;;;;11.43;8.50;;;;;;;9.36;64.73;100501.53;10384550;28;20050;-79
2021/11/14 15:17:16;;;;;;;11.35;8.57;;;;;;;9.12;65.23;100504.41;10385302;28;20053;-78
2021/11/14 15:22:17;;;;;;;10.48;8.55;;;;;;;9.17;65.50;100515.50;10382148;28;20417;-78
2021/11/14 15:27:22;;;;;;;11.60;8.57;;;;;;;9.03;65.74;100517.88;10382873;28;20421;-78
2021/11/14 15:32:23;;;;;;;9.63;8.07;;;;;;;9.00;65.68;100521.47;10381528;28;20153;-77
2021/11/14 15:37:25;;;;;;;9.63;8.30;;;;;;;8.96;66.03;100526.88;10382221;28;20045;-78
2021/11/14 15:42:27;;;;;;;11.27;9.20;;;;;;;9.01;65.79;100530.13;10383805;28;20923;-78
2021/11/14 15:47:29;;;;;;;11.25;9.32;;;;;;;8.96;65.89;100547.75;10384684;28;20052;-78
2021/11/14 15:52:32;;;;;;;12.05;9.20;;;;;;;9.01;65.78;100546.66;10383312;28;20045;-78
2021/11/14 15:57:34;;;;;;;11.18;9.30;;;;;;;9.03;65.76;100547.44;10383715;28;20068;-78
2021/11/14 16:02:35;;;;;;;11.10;8.60;;;;;;;9.09;65.74;100555.00;10382767;28;20093;-77
2021/11/14 16:07:37;;;;;;;11.55;9.05;;;;;;;9.03;65.61;100552.66;10382549;28;20360;-79
2021/11/14 16:12:40;;;;;;;14.60;9.80;;;;;;;8.94;65.98;100554.78;10381088;28;20405;-78
2021/11/14 16:17:42;;;;;;;10.52;9.05;;;;;;;8.94;66.04;100554.78;10383508;28;20454;-78
2021/11/14 16:22:44;;;;;;;11.45;9.63;;;;;;;8.93;66.03;100559.19;10381611;28;20049;-77
2021/11/14 16:27:47;;;;;;;13.27;10.95;;;;;;;8.95;66.08;100562.56;10388300;28;21037;-78
2021/11/14 16:32:55;;;;;;;12.63;10.10;;;;;;;9.03;65.68;100564.84;10388589;28;20412;-78
2021/11/14 16:38:01;;;;;;;12.93;10.88;;;;;;;8.97;66.03;100575.53;10390357;28;20045;-79
2021/11/14 16:43:03;;;;;;;13.70;10.68;;;;;;;9.06;65.83;100578.59;10389408;28;20057;-78
2021/11/14 16:48:04;;;;;;;15.95;11.02;;;;;;;9.14;65.52;100589.53;10389625;28;20049;-79
2021/11/14 16:53:06;;;;;;;14.63;10.60;;;;;;;9.14;65.51;100588.69;10389814;28;20053;-77
2021/11/14 16:58:08;;;;;;;15.15;11.23;;;;;;;9.11;65.77;100586.22;10388691;28;20079;-78
2021/11/14 17:03:10;;;;;;;13.32;10.05;;;;;;;9.02;65.76;100602.25;10390295;28;20063;-78
2021/11/14 17:08:12;;;;;;;14.57;10.68;;;;;;;9.06;65.69;100598.59;10388796;28;20056;-78
2021/11/14 17:13:14;;;;;;;11.32;9.50;;;;;;;9.01;65.68;100604.03;10389048;28;20054;-78
2021/11/14 17:18:16;;;;;;;13.13;9.50;;;;;;;8.96;65.63;100610.34;10387485;28;20065;-81
2021/11/14 17:23:17;;;;;;;14.70;9.85;;;;;;;9.01;65.51;100624.06;10386425;28;20079;-79
2021/11/14 17:28:19;;;;;;;13.15;10.02;;;;;;;8.97;65.52;100628.56;10387466;28;20046;-79
2021/11/14 17:33:21;;;;;;;12.05;9.65;;;;;;;9.08;65.32;100639.38;10389429;28;20050;-79
2021/11/14 17:38:27;;;;;;;12.13;10.10;;;;;;;9.07;65.38;100640.31;10387412;28;20049;-78
2021/11/14 17:43:28;;;;;;;13.73;10.50;;;;;;;9.10;65.19;100642.78;10386931;28;20204;-79
2021/11/14 17:48:30;;;;;;;13.23;9.50;;;;;;;9.08;65.50;100647.22;10388366;28;20053;-80
2021/11/14 17:53:32;;;;;;;10.55;8.40;;;;;;;8.91;65.47;100654.91;10388540;28;20362;-79
2021/11/14 17:58:34;;;;;;;11.45;8.13;;;;;;;8.99;65.38;100650.22;10386376;28;20057;-79
2021/11/14 18:03:36;;;;;;;10.93;8.95;;;;;;;9.01;65.38;100666.66;10386362;28;20054;-79
2021/11/14 18:08:38;;;;;;;10.45;7.68;;;;;;;8.81;65.32;100664.03;10385425;28;20056;-78
2021/11/14 18:13:39;;;;;;;9.50;7.72;;;;;;;8.89;65.19;100661.94;10386870;28;20055;-78
2021/11/14 18:18:41;;;;;;;9.05;7.20;;;;;;;8.89;65.06;100661.09;10387919;28;20134;-78
2021/11/14 18:23:43;;;;;;;10.30;7.50;;;;;;;8.73;64.97;100663.47;10384792;28;20298;-79
2021/11/14 18:28:48;;;;;;;8.77;7.40;;;;;;;8.91;64.97;100664.50;10386047;28;20335;-78
2021/11/14 18:33:50;;;;;;;9.35;8.23;;;;;;;8.98;64.71;100673.75;10388291;28;20164;-79
2021/11/14 18:38:51;;;;;;;8.60;6.75;;;;;;;8.73;64.63;100668.69;10386829;28;20477;-78
2021/11/14 18:43:53;;;;;;;9.07;7.45;;;;;;;8.70;64.64;100676.63;10385023;28;20046;-78
2021/11/14 18:48:55;;;;;;;9.23;7.38;;;;;;;8.69;64.70;100681.00;10385396;28;20063;-79
2021/11/14 18:53:57;;;;;;;11.50;7.75;;;;;;;8.77;64.78;100688.53;10382950;28;20154;-78
2021/11/14 18:59:01;;;;;;;9.50;7.63;;;;;;;8.75;64.67;100690.34;10385280;28;20421;-79
2021/11/14 19:04:03;;;;;;;9.82;8.00;;;;;;;8.84;64.59;100687.38;10383172;28;20512;-80
2021/11/14 19:09:07;;;;;;;10.00;8.05;;;;;;;8.91;64.24;100695.78;10382835;28;20068;-78
2021/11/14 19:14:08;;;;;;;10.95;7.93;;;;;;;8.75;64.17;100695.56;10398637;28;20141;-78
2021/11/14 19:19:12;;;;;;;15.95;7.85;;;;;;;8.66;64.65;100698.53;10380737;28;20128;-78
2021/11/14 19:24:14;;;;;;;10.63;7.40;;;;;;;8.62;64.57;100687.38;10382694;28;20057;-79
2021/11/14 19:29:16;;;;;;;10.85;7.57;;;;;;;8.75;64.04;100698.19;10383924;28;20599;-78
2021/11/14 19:34:18;;;;;;;9.82;7.78;;;;;;;8.71;63.90;100701.78;10382741;28;20049;-78
2021/11/14 19:39:19;;;;;;;11.18;7.95;;;;;;;8.57;64.43;100704.09;10382869;28;20127;-78
2021/11/14 19:44:21;;;;;;;10.95;8.60;;;;;;;8.56;64.34;100705.88;10380762;28;20053;-78
2021/11/14 19:49:25;;;;;;;11.10;8.80;;;;;;;8.59;64.39;100702.28;10375093;28;20136;-78
2021/11/14 19:54:26;;;;;;;12.50;9.15;;;;;;;8.61;64.33;100708.28;10381881;28;20060;-79
2021/11/14 19:59:33;;;;;;;11.65;9.70;;;;;;;8.52;64.33;100719.09;10380094;28;20063;-79
2021/11/14 20:04:36;;;;;;;11.80;9.55;;;;;;;8.48;64.34;100714.91;10373169;28;20060;-78
2021/11/14 20:09:37;;;;;;;12.05;9.52;;;;;;;8.42;64.38;100728.19;10380546;28;20797;-78
2021/11/14 20:14:43;;;;;;;12.00;9.73;;;;;;;8.44;64.38;100731.56;10379221;28;20141;-77
2021/11/14 20:19:46;;;;;;;13.25;10.65;;;;;;;8.47;64.36;100739.25;10381391;28;20144;-79
2021/11/14 20:24:48;;;;;;;14.40;10.32;;;;;;;8.52;64.20;100739.94;10394529;28;20190;-78
2021/11/14 20:29:50;;;;;;;14.82;11.23;;;;;;;8.49;64.27;100745.25;10382543;28;20164;-78
2021/11/14 20:34:53;;;;;;;13.20;11.20;;;;;;;8.57;64.13;100748.41;10376463;28;20513;-78
2021/11/14 20:39:55;;;;;;;11.63;10.35;;;;;;;8.38;64.39;100753.50;10381436;28;20179;-79
2021/11/14 20:44:58;;;;;;;11.25;10.05;;;;;;;8.46;64.00;100748.84;10381704;28;20119;-79
2021/11/14 20:50:02;;;;;;;13.60;10.60;;;;;;;8.36;64.24;100752.72;10381660;28;20175;-79
2021/11/14 20:55:04;;;;;;;12.85;10.45;;;;;;;8.44;64.18;100752.44;10381501;28;20144;-78
2021/11/14 21:00:08;;;;;;;15.77;11.73;;;;;;;8.46;64.38;100755.81;10381178;28;20075;-79
2021/11/14 21:05:10;;;;;;;14.77;11.80;;;;;;;8.48;64.36;100757.47;10380946;28;20443;-78
2021/11/14 21:10:12;;;;;;;14.05;11.48;;;;;;;8.36;64.32;100759.69;10376398;28;20541;-79
2021/11/14 21:15:15;;;;;;;15.07;12.15;;;;;;;8.51;64.25;100769.50;10386530;28;20416;-78
2021/11/14 21:20:20;;;;;;;16.15;12.05;;;;;;;8.59;64.28;100760.50;10385348;28;20053;-80
2021/11/14 21:25:23;;;;;;;13.50;11.27;;;;;;;8.51;64.03;100759.09;10389265;28;20124;-78
2021/11/14 21:30:25;;;;;;;13.27;11.75;;;;;;;8.48;63.92;100759.22;10387326;28;20309;-79
2021/11/14 21:40:51;;;;;;;14.17;11.57;;;;;;;8.37;63.98;100753.53;10389350;28;20079;-78
2021/11/14 21:45:52;;;;;;;15.77;12.43;;;;;;;8.45;64.02;100757.56;10388631;28;20055;-77
2021/11/14 21:50:54;;;;;;;15.90;11.57;;;;;;;8.44;64.08;100758.50;10387839;28;20358;-79
2021/11/14 21:55:56;;;;;;;14.68;12.05;;;;;;;8.38;64.13;100756.13;10388854;28;20055;-78
2021/11/14 22:00:58;;;;;;;12.80;11.02;;;;;;;8.45;64.30;100762.78;10388271;28;20060;-77
2021/11/14 22:06:00;;;;;;;13.35;11.73;;;;;;;8.55;63.94;100765.88;10387440;28;20536;-77
2021/11/14 22:11:04;;;;;;;15.35;12.77;;;;;;;8.55;63.99;100760.66;10384759;28;20053;-78
2021/11/14 22:16:06;;;;;;;14.43;11.73;;;;;;;8.53;63.93;100762.47;10381579;28;20991;-80
2021/11/14 22:21:08;;;;;;;19.88;12.30;;;;;;;8.64;63.85;100760.31;10384162;28;20080;-79
2021/11/14 22:26:10;;;;;;;14.27;12.20;;;;;;;8.47;64.07;100760.97;10383585;28;20045;-79
2021/11/14 22:31:12;;;;;;;20.02;12.73;;;;;;;8.55;64.07;100760.66;10384041;28;20064;-66
2021/11/14 22:36:13;;;;;;;16.90;12.73;;;;;;;8.41;63.83;100762.94;10381662;28;20131;-64
2021/11/14 22:41:15;;;;;;;14.18;11.90;;;;;;;8.30;64.03;100749.50;10383231;28;20068;-66
2021/11/14 22:51:19;;;;;;;15.95;11.60;;;;;;;8.20;64.13;100742.94;10384825;28;20056;-66
2021/11/14 22:56:21;;;;;;;12.65;11.27;;;;;;;8.14;64.00;100750.97;10385159;28;20060;-66
2021/11/14 23:01:30;;;;;;;13.18;11.68;;;;;;;7.93;64.24;100753.41;10384428;28;20053;-66
2021/11/14 23:06:33;;;;;;;14.10;12.60;;;;;;;8.00;64.43;100752.28;10384641;28;20128;-66
2021/11/14 23:11:39;;;;;;;15.07;13.07;;;;;;;8.08;64.42;100762.41;10385185;28;20111;-66
2021/11/14 23:16:45;;;;;;;14.68;12.50;;;;;;;7.95;64.42;100754.22;10385371;28;20145;-66